Current Weather

Porter County Rgnl

Valparaiso, Indiana (KVPZ)

Report from: Wednesday, August 17, 2022 8:56 PM CDT
Current time: Wednesday, August 17, 2022 9:10 PM CDT

Nearby weather
Weather history
Weather forecast

Temperature18.3°C (64.9°F)
Dew point15.6°C (60.1°F)
Winds 3 kts (1.5 m/s, 3.5 mph) North (350°)
Visibility10 mi. (16.1 km)
Clouds Sky clear
Altimeter30.09 in.Hg (1019 mB)
Relative humidity84 %
Density altitude439 ft. (134 m)
Sea-level pressure101.9 kPa (1019 mB, 30.08 in.Hg)
Remarks Fully automated report
Automated weather observing station with precipitation discriminator
Flight conditions Visual Meteorological Conditions
Raw dataKVPZ 180156Z AUTO 35003KT 10SM CLR 18/16 A3009 RMK AO2 SLP185 T01830156
An error has occurred. This application may no longer respond until reloaded. Reload 🗙